Terminal Aerodrome Forecast
Issued by NWS

Home | Current Version | Previous Version | Text Only | Print | Product List | Glossary On
Versions: 1 2 3 4 5 6 7 8 9 10 11 12 13 14 15 16 17 18 19
000
FTUS46 KLOX 201700
TAFOXR
TAF
KOXR 201740Z 2018/2118 VRB05KT P6SM BKN020 BKN025
     FM201900 25006KT P6SM BKN025 BKN120
     FM202200 28011KT P6SM BKN035 BKN120
     FM210300 31010KT P6SM BKN040 BKN120
     FM211000 VRB05KT P6SM SCT050 BKN150=

USA.gov is the U.S. government's official web portal to all federal, state and local government web resources and services.